Time;durP1;ratioP1;P1;durP2;ratioP2;P2;SDS_P1;SDS_P2;PMS_P1;PMS_P2;Temp;Humidity;BMP_temperature;BMP_pressure;BME280_temperature;BME280_humidity;BME280_pressure;Samples;Min_cycle;Max_cycle;Signal;HPM_P1;HPM_P2
2022/07/11 00:02:05;;;;;;;3.17;2.97;;;;;;;21.46;52.97;99230.88;5072488;28;20677;-66
2022/07/11 00:04:32;;;;;;;4.10;3.80;;;;;;;21.43;52.98;99221.38;5072623;28;20199;-66
2022/07/11 00:06:59;;;;;;;3.40;3.13;;;;;;;21.45;53.18;99227.41;5072205;28;20188;-66
2022/07/11 00:09:26;;;;;;;3.23;3.03;;;;;;;21.40;53.46;99226.69;5072358;28;20196;-66
2022/07/11 00:11:53;;;;;;;3.60;3.30;;;;;;;21.39;53.46;99213.69;5072425;28;20195;-66
2022/07/11 00:14:21;;;;;;;3.20;3.00;;;;;;;21.36;53.49;99205.94;5072078;28;20720;-66
2022/07/11 00:16:48;;;;;;;3.67;3.47;;;;;;;21.30;53.77;99209.59;5072376;28;20206;-66
2022/07/11 00:19:17;;;;;;;6.83;3.63;;;;;;;21.30;53.87;99220.06;5072294;28;20199;-66
2022/07/11 00:21:44;;;;;;;4.10;3.37;;;;;;;21.25;53.97;99218.50;5072105;28;20662;-66
2022/07/11 00:24:11;;;;;;;3.60;3.20;;;;;;;21.21;54.04;99215.13;5071689;28;20231;-66
2022/07/11 00:26:38;;;;;;;3.50;3.30;;;;;;;21.21;53.91;99227.31;5072108;28;20586;-67
2022/07/11 00:29:06;;;;;;;3.50;3.30;;;;;;;21.18;53.89;99210.84;5071825;28;20551;-66
2022/07/11 00:31:33;;;;;;;3.80;3.45;;;;;;;21.05;53.91;99192.94;5071891;28;20442;-65
2022/07/11 00:34:00;;;;;;;3.97;3.47;;;;;;;21.22;53.54;99221.19;5071247;28;20226;-65
2022/07/11 00:36:28;;;;;;;5.10;3.67;;;;;;;21.12;53.98;99224.09;5072115;28;20195;-65
2022/07/11 00:38:55;;;;;;;4.10;3.57;;;;;;;21.15;53.60;99226.59;5071562;28;20202;-65
2022/07/11 00:41:22;;;;;;;3.30;3.00;;;;;;;21.12;53.57;99226.69;5071650;28;20613;-66
2022/07/11 00:43:53;;;;;;;4.07;3.20;;;;;;;21.13;53.33;99227.56;5071221;28;20218;-66
2022/07/11 00:46:19;;;;;;;5.63;3.20;;;;;;;21.02;53.48;99227.84;5071339;28;20286;-66
2022/07/11 00:48:46;;;;;;;3.83;2.93;;;;;;;21.11;53.39;99232.00;5071675;28;20191;-66
2022/07/11 00:51:14;;;;;;;3.87;2.83;;;;;;;21.18;53.09;99236.97;5071346;28;20191;-66
2022/07/11 00:53:42;;;;;;;3.47;3.20;;;;;;;21.20;52.89;99234.31;5071243;28;20633;-66
2022/07/11 00:56:11;;;;;;;2.90;2.70;;;;;;;21.24;52.94;99241.16;5071313;28;20191;-66
2022/07/11 00:58:38;;;;;;;3.33;3.10;;;;;;;21.30;52.64;99242.72;5071438;28;20195;-66
2022/07/11 01:01:06;;;;;;;3.47;3.27;;;;;;;21.27;52.72;99240.19;5071469;28;20724;-66
2022/07/11 01:03:35;;;;;;;6.60;2.87;;;;;;;21.25;52.67;99232.41;5071287;28;20188;-66
2022/07/11 01:06:02;;;;;;;3.77;3.37;;;;;;;21.17;52.84;99245.72;5071148;28;20604;-65
2022/07/11 01:08:31;;;;;;;3.77;3.47;;;;;;;21.23;53.13;99233.38;5070958;28;20203;-66
2022/07/11 01:11:02;;;;;;;3.93;3.10;;;;;;;21.18;53.14;99250.03;5071247;28;20219;-65
2022/07/11 01:13:30;;;;;;;3.47;3.17;;;;;;;21.17;53.20;99247.47;5071186;28;20219;-66
2022/07/11 01:16:20;;;;;;;3.30;3.10;;;;;;;21.14;53.10;99242.34;5070944;28;20274;-66
2022/07/11 01:18:49;;;;;;;3.40;3.10;;;;;;;21.14;53.67;99251.03;5064581;28;20540;-66
2022/07/11 01:21:23;;;;;;;3.23;3.03;;;;;;;21.12;53.48;99258.06;5071082;28;20202;-66
2022/07/11 01:23:52;;;;;;;3.20;3.00;;;;;;;21.06;53.53;99247.78;5070945;28;20715;-66
2022/07/11 01:26:20;;;;;;;3.13;2.90;;;;;;;21.08;53.73;99255.59;5070732;28;20206;-66
2022/07/11 01:28:47;;;;;;;6.83;3.30;;;;;;;21.01;53.70;99248.81;5070702;28;20198;-66
2022/07/11 01:31:14;;;;;;;3.00;2.80;;;;;;;20.95;54.09;99243.78;5070778;28;20195;-66
2022/07/11 01:33:41;;;;;;;3.60;3.30;;;;;;;20.85;54.43;99245.78;5069951;28;20450;-66
2022/07/11 01:36:08;;;;;;;3.60;3.40;;;;;;;20.87;54.49;99245.75;5070883;28;20199;-66
2022/07/11 01:38:35;;;;;;;3.27;3.07;;;;;;;20.66;54.76;99207.22;5070648;28;20666;-66
2022/07/11 01:41:04;;;;;;;5.07;3.30;;;;;;;20.83;54.75;99234.53;5070681;28;20187;-66
2022/07/11 01:43:31;;;;;;;3.33;3.10;;;;;;;20.83;54.96;99241.50;5067475;28;20195;-67
2022/07/11 01:45:58;;;;;;;3.47;2.83;;;;;;;20.78;55.22;99241.66;5050191;28;20671;-67
2022/07/11 01:48:25;;;;;;;2.93;2.70;;;;;;;20.72;55.48;99235.75;5060336;28;20214;-66
2022/07/11 01:50:51;;;;;;;4.00;3.40;;;;;;;20.70;55.82;99237.53;5065046;28;20203;-66
2022/07/11 01:53:18;;;;;;;3.33;3.13;;;;;;;20.67;55.84;99248.06;5056537;28;20277;-66
2022/07/11 01:55:45;;;;;;;2.80;2.60;;;;;;;20.67;56.00;99248.06;5069842;28;20187;-66
2022/07/11 01:58:13;;;;;;;3.20;2.90;;;;;;;20.64;55.91;99248.16;5070224;28;20261;-67
2022/07/11 02:00:40;;;;;;;3.20;3.00;;;;;;;20.63;55.81;99247.28;5065470;28;20447;-66
2022/07/11 02:03:07;;;;;;;3.53;3.20;;;;;;;20.67;55.74;99243.72;5060196;28;20197;-66
2022/07/11 02:05:34;;;;;;;3.97;3.10;;;;;;;20.60;55.74;99226.53;5069854;28;20202;-66
2022/07/11 02:08:14;;;;;;;7.57;3.20;;;;;;;20.56;55.94;99232.72;5069347;28;20188;-66
2022/07/11 02:10:43;;;;;;;3.40;3.20;;;;;;;20.62;56.00;99239.53;5069834;28;20662;-66
2022/07/11 02:13:12;;;;;;;3.30;3.10;;;;;;;20.67;55.81;99237.63;5056419;28;20207;-66
2022/07/11 02:15:40;;;;;;;3.88;3.40;;;;;;;20.64;56.12;99249.00;5054544;28;20826;-65
2022/07/11 02:18:07;;;;;;;4.93;3.27;;;;;;;20.65;56.06;99250.75;5049471;28;20189;-66
2022/07/11 02:20:34;;;;;;;3.10;2.90;;;;;;;20.64;56.22;99243.78;5060043;28;20278;-66
2022/07/11 02:23:02;;;;;;;2.90;2.70;;;;;;;20.63;56.25;99251.69;5064313;28;20306;-67
2022/07/11 02:25:28;;;;;;;3.80;3.23;;;;;;;20.63;56.03;99260.34;5069960;28;20195;-65
2022/07/11 02:27:56;;;;;;;3.17;2.97;;;;;;;20.54;56.46;99260.63;5069597;28;20191;-66
2022/07/11 02:30:23;;;;;;;3.53;3.23;;;;;;;20.55;56.44;99263.19;5070201;28;20198;-66
2022/07/11 02:32:52;;;;;;;4.10;2.80;;;;;;;20.51;56.56;99263.31;5068273;28;20196;-66
2022/07/11 02:35:19;;;;;;;2.63;2.53;;;;;;;20.44;56.80;99259.16;5070008;28;20705;-66
2022/07/11 02:37:46;;;;;;;3.10;2.80;;;;;;;20.44;56.64;99269.59;5070009;28;20199;-66
2022/07/11 02:40:13;;;;;;;3.20;3.00;;;;;;;20.43;56.71;99279.19;5069729;28;20199;-66
2022/07/11 02:42:40;;;;;;;3.10;2.90;;;;;;;20.46;56.85;99281.69;5069773;28;20198;-66
2022/07/11 02:45:08;;;;;;;3.23;3.00;;;;;;;20.48;56.71;99287.75;5070009;28;20176;-66
2022/07/11 02:47:36;;;;;;;3.15;2.88;;;;;;;20.53;56.19;99290.22;5068636;28;20437;-66
2022/07/11 02:50:06;;;;;;;5.53;2.90;;;;;;;20.60;55.81;99294.41;5069626;28;20187;-66
2022/07/11 02:52:33;;;;;;;3.00;2.80;;;;;;;20.48;55.27;99268.63;5069607;28;20286;-66
2022/07/11 02:54:59;;;;;;;3.10;2.90;;;;;;;20.66;55.58;99296.00;5069867;28;20222;-66
2022/07/11 02:57:26;;;;;;;3.17;2.87;;;;;;;20.60;55.95;99300.44;5070604;28;20666;-66
2022/07/11 02:59:53;;;;;;;5.03;3.00;;;;;;;20.61;55.72;99309.16;5073578;28;20203;-67
2022/07/11 03:02:20;;;;;;;3.50;3.03;;;;;;;20.60;55.70;99305.69;5072770;28;20441;-66
2022/07/11 03:04:47;;;;;;;5.27;3.20;;;;;;;20.65;55.71;99309.94;5073228;28;20188;-66
2022/07/11 03:07:16;;;;;;;4.80;3.10;;;;;;;20.60;55.82;99308.28;5072418;28;20196;-66
2022/07/11 03:09:43;;;;;;;3.57;3.27;;;;;;;20.61;55.57;99316.97;5073174;28;20207;-66
2022/07/11 03:12:10;;;;;;;3.70;3.00;;;;;;;20.77;55.05;99312.19;5073680;28;20203;-66
2022/07/11 03:14:37;;;;;;;4.10;3.00;;;;;;;20.96;54.36;99321.22;5073449;28;20229;-66
2022/07/11 03:17:04;;;;;;;4.13;3.20;;;;;;;20.92;54.05;99314.38;5073256;28;20199;-65
2022/07/11 03:19:30;;;;;;;3.10;2.90;;;;;;;20.84;54.24;99313.75;5073220;28;20195;-66
2022/07/11 03:21:57;;;;;;;3.37;2.80;;;;;;;20.88;53.83;99318.81;5072905;28;20199;-65
2022/07/11 03:24:25;;;;;;;3.13;2.90;;;;;;;20.85;53.92;99318.91;5072903;28;20649;-66
2022/07/11 03:26:52;;;;;;;3.60;2.83;;;;;;;20.95;53.42;99328.22;5073131;28;20613;-65
2022/07/11 03:29:19;;;;;;;3.03;2.83;;;;;;;21.04;52.94;99317.47;5073024;28;20756;-66
2022/07/11 03:31:46;;;;;;;3.13;2.80;;;;;;;21.16;52.74;99321.53;5073087;28;20191;-66
2022/07/11 03:34:13;;;;;;;4.53;3.05;;;;;;;21.23;52.19;99319.63;5071632;28;20457;-65
2022/07/11 03:36:40;;;;;;;3.33;3.03;;;;;;;21.34;51.90;99328.00;5072857;28;20743;-66
2022/07/11 03:39:06;;;;;;;2.90;2.70;;;;;;;21.35;51.46;99334.91;5072865;28;20195;-66
2022/07/11 03:41:35;;;;;;;2.97;2.53;;;;;;;21.39;51.37;99332.19;5072840;28;20192;-67
2022/07/11 03:44:02;;;;;;;3.60;2.70;;;;;;;21.36;51.42;99334.88;5072119;28;20249;-67
2022/07/11 03:46:28;;;;;;;4.37;2.87;;;;;;;21.35;51.24;99334.91;5072718;28;20201;-66
2022/07/11 03:48:55;;;;;;;3.70;2.75;;;;;;;21.29;51.15;99309.81;5071679;28;20498;-66
2022/07/11 03:51:22;;;;;;;2.77;2.57;;;;;;;21.46;51.13;99344.16;5072539;28;20187;-65
2022/07/11 03:53:49;;;;;;;2.80;2.60;;;;;;;21.41;51.07;99338.22;5072386;28;20219;-66
2022/07/11 03:56:20;;;;;;;3.00;2.60;;;;;;;21.35;51.38;99342.75;5072373;28;20198;-66
2022/07/11 03:58:49;;;;;;;2.63;2.43;;;;;;;21.42;51.00;99350.38;5072350;28;20187;-66
2022/07/11 04:01:16;;;;;;;4.33;3.10;;;;;;;21.45;51.32;99350.28;5072341;28;20196;-66
2022/07/11 04:03:43;;;;;;;3.80;3.27;;;;;;;21.48;51.17;99359.81;5072357;28;20282;-66
2022/07/11 04:06:10;;;;;;;4.77;2.83;;;;;;;21.43;51.38;99346.84;5072562;28;20203;-64
2022/07/11 04:08:36;;;;;;;5.20;2.87;;;;;;;21.39;51.33;99334.78;5063721;28;20271;-64
2022/07/11 04:17:48;;;;;;;4.17;3.03;;;;;;;21.23;51.87;99344.00;5866027;22;20235;-57
2022/07/11 04:20:15;;;;;;;2.77;2.57;;;;;;;21.28;52.05;99354.31;5031473;28;20443;-57
2022/07/11 04:22:42;;;;;;;4.43;2.60;;;;;;;21.33;52.01;99355.88;5030810;28;20197;-58
2022/07/11 04:25:09;;;;;;;3.03;2.80;;;;;;;21.34;52.22;99359.34;5031936;28;20588;-57
2022/07/11 04:27:36;;;;;;;3.23;3.03;;;;;;;21.37;52.29;99347.03;5031519;28;20192;-57
2022/07/11 04:30:03;;;;;;;3.37;2.73;;;;;;;21.33;52.35;99357.63;5031525;28;20193;-58
2022/07/11 04:32:30;;;;;;;3.57;2.83;;;;;;;21.32;52.85;99343.69;5031401;28;20193;-58
2022/07/11 04:34:58;;;;;;;2.88;2.53;;;;;;;21.38;52.78;99351.38;5030691;28;20449;-58
2022/07/11 04:37:26;;;;;;;4.80;2.80;;;;;;;21.37;52.77;99354.03;5031771;28;20208;-57
2022/07/11 04:39:53;;;;;;;10.47;3.00;;;;;;;21.42;52.79;99360.84;5031583;28;20698;-57
2022/07/11 04:42:19;;;;;;;4.33;2.93;;;;;;;21.43;52.76;99356.44;5031431;28;20193;-58
2022/07/11 04:44:46;;;;;;;4.07;2.77;;;;;;;21.45;52.74;99362.50;5031425;28;20192;-57
2022/07/11 04:47:13;;;;;;;3.37;3.03;;;;;;;21.52;52.79;99370.13;5031675;28;20192;-57
2022/07/11 04:49:40;;;;;;;4.67;2.87;;;;;;;21.52;52.55;99367.50;5031386;28;20196;-57
2022/07/11 04:52:08;;;;;;;3.23;2.60;;;;;;;21.52;52.54;99372.72;5030684;28;20204;-57
2022/07/11 04:54:35;;;;;;;3.13;2.30;;;;;;;21.57;52.23;99373.44;5019637;28;20225;-57
2022/07/11 04:57:02;;;;;;;5.53;2.60;;;;;;;21.61;52.23;99389.91;5011480;28;20623;-58
2022/07/11 04:59:29;;;;;;;2.40;2.20;;;;;;;21.65;52.08;99384.53;5011468;28;20200;-57
2022/07/11 05:01:56;;;;;;;7.83;2.90;;;;;;;21.65;52.41;99392.38;5011801;28;20237;-57
2022/07/11 05:04:23;;;;;;;5.53;3.17;;;;;;;21.66;52.27;99390.63;5011183;28;20201;-57
2022/07/11 05:06:49;;;;;;;3.20;2.58;;;;;;;21.69;52.35;99385.31;5010301;28;20453;-58
2022/07/11 05:09:18;;;;;;;3.93;2.93;;;;;;;21.82;51.99;99388.38;5029645;28;20197;-57
2022/07/11 05:11:45;;;;;;;2.90;2.60;;;;;;;21.71;51.46;99363.44;5030909;28;20196;-57
2022/07/11 05:14:11;;;;;;;4.07;2.80;;;;;;;21.87;51.77;99387.38;5030190;28;20221;-58
2022/07/11 05:16:39;;;;;;;2.90;2.70;;;;;;;21.84;51.60;99391.84;5030626;28;20623;-57
2022/07/11 05:19:06;;;;;;;3.90;2.40;;;;;;;21.80;51.72;99384.97;5030686;28;20306;-58
2022/07/11 05:21:32;;;;;;;3.33;2.90;;;;;;;21.85;51.39;99396.13;5029839;28;20193;-58
2022/07/11 05:23:59;;;;;;;4.20;2.47;;;;;;;21.85;51.75;99396.13;5029878;28;20797;-58
2022/07/11 05:26:27;;;;;;;2.60;2.40;;;;;;;21.98;50.72;99392.25;5030525;28;20197;-58
2022/07/11 05:28:54;;;;;;;3.83;2.63;;;;;;;22.06;51.12;99400.72;5030461;28;20196;-58
2022/07/11 05:31:21;;;;;;;3.53;2.37;;;;;;;21.99;50.85;99396.59;5030551;28;20592;-57
2022/07/11 05:33:48;;;;;;;6.30;3.53;;;;;;;22.08;50.74;99398.94;5030399;28;20197;-57
2022/07/11 05:36:15;;;;;;;2.93;2.73;;;;;;;22.14;50.82;99393.50;5030276;28;20274;-57
2022/07/11 05:38:41;;;;;;;3.07;2.77;;;;;;;22.27;50.69;99393.06;5030257;28;20219;-58
2022/07/11 05:41:08;;;;;;;3.23;2.67;;;;;;;22.41;49.88;99397.84;5030215;28;20659;-57
2022/07/11 05:43:36;;;;;;;3.10;2.17;;;;;;;22.42;48.84;99404.78;5030219;28;20208;-57
2022/07/11 05:46:05;;;;;;;4.63;2.97;;;;;;;22.49;48.84;99390.59;5029760;28;20235;-57
2022/07/11 05:48:33;;;;;;;5.32;2.30;;;;;;;22.31;48.99;99371.09;5029530;28;20994;-57
2022/07/11 05:50:59;;;;;;;3.30;2.50;;;;;;;22.57;48.70;99399.03;5029850;28;20211;-57
2022/07/11 05:53:26;;;;;;;3.13;2.40;;;;;;;22.50;47.97;99400.13;5034224;28;20254;-57
2022/07/11 05:55:53;;;;;;;3.23;2.40;;;;;;;22.57;48.97;99406.91;5031214;28;20224;-57
2022/07/11 05:58:21;;;;;;;6.47;2.53;;;;;;;22.62;48.49;99412.84;5029829;28;20197;-57
2022/07/11 06:00:49;;;;;;;5.47;2.70;;;;;;;22.79;48.53;99410.53;5030109;28;20247;-57
2022/07/11 06:03:16;;;;;;;2.10;2.00;;;;;;;22.84;48.25;99413.84;5030051;28;20271;-58
2022/07/11 06:05:43;;;;;;;2.80;2.40;;;;;;;22.96;48.22;99427.44;5028009;28;20839;-57
2022/07/11 06:10:54;;;;;;;4.30;2.23;;;;;;;22.88;47.40;99433.78;5029102;28;20705;-58
2022/07/11 06:13:21;;;;;;;2.57;1.93;;;;;;;23.07;46.80;99422.66;5029556;28;20737;-56
2022/07/11 06:15:49;;;;;;;5.07;2.20;;;;;;;23.18;46.87;99433.63;5028979;28;20216;-57
2022/07/11 06:18:16;;;;;;;4.00;2.37;;;;;;;23.14;46.28;99432.88;5023585;28;20237;-57
2022/07/11 06:20:42;;;;;;;2.30;1.90;;;;;;;23.31;45.72;99430.50;5029144;28;20212;-57
2022/07/11 06:23:09;;;;;;;1.97;1.87;;;;;;;23.32;44.49;99421.72;5034375;28;20212;-57
2022/07/11 06:25:37;;;;;;;2.40;2.10;;;;;;;23.24;44.73;99430.78;5029905;28;20193;-57
2022/07/11 06:28:04;;;;;;;2.27;1.80;;;;;;;23.27;44.37;99444.63;5029133;28;20205;-57
2022/07/11 06:30:31;;;;;;;5.87;2.13;;;;;;;23.23;43.66;99439.56;5029296;28;20627;-57
2022/07/11 06:33:00;;;;;;;2.43;2.23;;;;;;;23.37;44.00;99435.56;5031092;28;20208;-57
2022/07/11 06:35:27;;;;;;;2.27;2.00;;;;;;;23.30;42.79;99433.16;5033406;28;20220;-57
2022/07/11 06:37:53;;;;;;;2.63;2.20;;;;;;;23.40;42.81;99431.97;5015971;28;20672;-58
2022/07/11 06:40:20;;;;;;;2.13;2.03;;;;;;;23.36;42.95;99435.56;5013557;28;20198;-57
2022/07/11 06:42:47;;;;;;;2.03;1.93;;;;;;;23.42;42.85;99436.25;5013417;28;20201;-57
2022/07/11 06:45:14;;;;;;;1.83;1.73;;;;;;;23.47;42.00;99436.06;5013660;28;20189;-57
2022/07/11 06:47:41;;;;;;;3.63;1.93;;;;;;;23.52;41.72;99439.38;5013326;28;20193;-57
2022/07/11 06:50:10;;;;;;;2.78;1.80;;;;;;;23.59;41.24;99451.38;5011511;28;20713;-57
2022/07/11 06:52:37;;;;;;;1.83;1.67;;;;;;;23.64;40.24;99448.56;5011791;28;20320;-58
2022/07/11 06:55:05;;;;;;;3.30;1.97;;;;;;;23.64;40.45;99438.06;5011787;28;20213;-58
2022/07/11 06:57:32;;;;;;;2.00;1.90;;;;;;;23.75;41.11;99435.88;5011250;28;20668;-58
2022/07/11 06:59:58;;;;;;;2.63;1.93;;;;;;;23.78;41.32;99423.53;5010827;28;20190;-58
2022/07/11 07:02:29;;;;;;;3.97;1.70;;;;;;;23.86;41.03;99431.94;5010439;28;20247;-57
2022/07/11 07:04:58;;;;;;;2.27;1.70;;;;;;;23.81;40.13;99431.28;5011019;28;20185;-57
2022/07/11 07:07:26;;;;;;;2.10;1.90;;;;;;;23.92;40.12;99442.22;5011337;28;20201;-57
2022/07/11 07:09:53;;;;;;;3.90;1.40;;;;;;;23.94;40.55;99432.50;5011924;28;20201;-57
2022/07/11 07:12:21;;;;;;;2.70;2.13;;;;;;;23.89;40.65;99434.47;5012219;28;20212;-57
2022/07/11 07:14:48;;;;;;;2.17;1.53;;;;;;;23.98;40.08;99439.31;5012363;28;20221;-58
2022/07/11 07:17:15;;;;;;;3.60;2.00;;;;;;;23.99;40.01;99425.31;5012478;28;20205;-58
2022/07/11 07:19:42;;;;;;;3.57;1.90;;;;;;;24.07;40.57;99427.63;4973486;28;20206;-58
2022/07/11 07:22:09;;;;;;;1.90;1.70;;;;;;;24.09;41.00;99425.81;4973743;28;20678;-60
2022/07/11 07:24:37;;;;;;;2.30;1.93;;;;;;;24.11;40.96;99412.63;4973578;28;20195;-58
2022/07/11 07:27:05;;;;;;;4.37;1.87;;;;;;;24.34;40.73;99418.66;4973429;28;20191;-58
2022/07/11 07:29:32;;;;;;;3.63;1.67;;;;;;;24.35;39.64;99430.03;4973367;28;20576;-58
2022/07/11 07:31:59;;;;;;;2.10;1.63;;;;;;;24.30;40.18;99421.50;4973646;28;20199;-58
2022/07/11 07:34:26;;;;;;;3.27;1.80;;;;;;;24.32;40.38;99435.41;4973496;28;20195;-57
2022/07/11 07:36:53;;;;;;;2.05;1.90;;;;;;;24.34;39.67;99425.69;4973272;28;20464;-57
2022/07/11 07:39:20;;;;;;;4.90;2.27;;;;;;;24.43;39.59;99434.06;4973291;28;20203;-57
2022/07/11 07:41:48;;;;;;;3.77;1.70;;;;;;;24.33;37.80;99435.34;4973281;28;20195;-57
2022/07/11 07:44:15;;;;;;;4.73;1.93;;;;;;;24.36;37.58;99431.75;4973146;28;20658;-57
2022/07/11 07:46:42;;;;;;;4.70;1.70;;;;;;;24.36;37.12;99434.38;4973220;28;20195;-57
2022/07/11 07:49:08;;;;;;;3.87;1.73;;;;;;;24.48;36.70;99439.09;4973213;28;20191;-58
2022/07/11 07:51:35;;;;;;;1.80;1.70;;;;;;;24.51;36.78;99431.97;4976965;28;20210;-57
2022/07/11 07:54:02;;;;;;;4.77;1.80;;;;;;;24.56;37.10;99431.75;4992211;28;20554;-57
2022/07/11 07:56:29;;;;;;;2.37;2.13;;;;;;;24.65;38.29;99428.75;4992235;28;20701;-57
2022/07/11 07:58:57;;;;;;;2.77;1.77;;;;;;;24.90;37.45;99437.34;4992482;28;20569;-57
2022/07/11 08:01:36;;;;;;;2.73;2.20;;;;;;;24.88;37.25;99433.09;4993038;28;20194;-57
2022/07/11 08:04:03;;;;;;;2.00;1.90;;;;;;;25.06;37.37;99432.28;4987834;28;20194;-57
2022/07/11 08:06:30;;;;;;;2.07;1.70;;;;;;;24.92;37.19;99429.38;5000973;28;20189;-57
2022/07/11 08:08:57;;;;;;;1.87;1.73;;;;;;;24.69;36.73;99411.97;5002721;28;20676;-58
2022/07/11 08:11:24;;;;;;;1.90;1.50;;;;;;;24.70;35.35;99429.41;4993731;28;20660;-57
2022/07/11 08:13:51;;;;;;;1.90;1.50;;;;;;;24.76;35.39;99438.81;4994191;28;20201;-58
2022/07/11 08:16:19;;;;;;;3.00;2.10;;;;;;;24.87;34.95;99431.38;4994809;28;20726;-57
2022/07/11 08:18:47;;;;;;;6.27;1.67;;;;;;;25.05;35.32;99430.59;5016803;28;20231;-57
2022/07/11 08:21:14;;;;;;;1.90;1.70;;;;;;;25.10;35.66;99418.09;5031691;28;20200;-57
2022/07/11 08:23:40;;;;;;;3.77;1.90;;;;;;;25.04;36.02;99437.63;5031669;28;20656;-57
2022/07/11 08:26:08;;;;;;;1.70;1.60;;;;;;;25.00;35.99;99435.16;5030904;28;20193;-57
2022/07/11 08:28:34;;;;;;;3.28;1.80;;;;;;;24.93;36.64;99425.84;5030741;28;20441;-57
2022/07/11 08:31:01;;;;;;;1.73;1.63;;;;;;;25.01;36.60;99436.88;5031723;28;20219;-57
2022/07/11 08:33:29;;;;;;;2.03;1.83;;;;;;;25.09;35.91;99433.00;5033633;28;20204;-57
2022/07/11 08:35:56;;;;;;;1.83;1.63;;;;;;;25.18;36.38;99418.59;5031268;28;20448;-57
2022/07/11 08:38:24;;;;;;;1.60;1.50;;;;;;;25.11;35.90;99390.84;5031117;28;20204;-57
2022/07/11 08:40:51;;;;;;;2.63;1.70;;;;;;;25.39;35.08;99425.53;5031032;28;20652;-57
2022/07/11 08:43:22;;;;;;;3.23;2.10;;;;;;;25.09;36.23;99405.84;5031410;28;20196;-57
2022/07/11 08:45:51;;;;;;;1.80;1.70;;;;;;;25.13;36.28;99421.41;5031026;28;20243;-57
2022/07/11 08:48:20;;;;;;;2.22;1.80;;;;;;;25.27;35.90;99405.06;5030277;28;20498;-57
2022/07/11 08:50:50;;;;;;;2.60;1.80;;;;;;;25.43;34.90;99406.06;5030704;28;20200;-57
2022/07/11 08:53:18;;;;;;;2.40;1.70;;;;;;;25.34;35.35;99417.00;5030740;28;20204;-57
2022/07/11 08:55:44;;;;;;;2.00;1.77;;;;;;;25.45;35.30;99409.47;5030228;28;20224;-57
2022/07/11 08:58:13;;;;;;;3.80;1.80;;;;;;;25.45;34.52;99377.91;5030734;28;20192;-57
2022/07/11 09:00:42;;;;;;;1.95;1.70;;;;;;;25.84;34.59;99403.31;5029482;28;20440;-58
2022/07/11 09:03:14;;;;;;;3.03;2.13;;;;;;;25.94;35.26;99410.69;5030739;28;20197;-57
2022/07/11 09:05:41;;;;;;;3.60;2.00;;;;;;;25.72;34.39;99415.28;5030456;28;20193;-57
2022/07/11 09:08:09;;;;;;;3.43;2.00;;;;;;;25.75;34.27;99407.22;5037621;28;20204;-57
2022/07/11 09:10:39;;;;;;;2.30;1.80;;;;;;;25.83;33.26;99404.22;5029759;28;20247;-57
2022/07/11 09:13:08;;;;;;;2.40;2.17;;;;;;;25.73;33.89;99403.81;5030418;28;20678;-57
2022/07/11 09:15:39;;;;;;;2.30;2.10;;;;;;;25.73;32.88;99425.75;5030606;28;20212;-57
2022/07/11 09:18:27;;;;;;;3.28;2.38;;;;;;;25.76;32.67;99408.94;5030294;28;20989;-57
2022/07/11 09:26:30;;;;;;;1.90;1.80;;;;;;;26.01;32.01;99380.53;5031126;28;20682;-57
2022/07/11 09:29:05;;;;;;;1.87;1.77;;;;;;;26.17;31.29;99402.59;5028129;28;20188;-58
2022/07/11 09:31:33;;;;;;;2.60;1.90;;;;;;;26.04;30.77;99392.69;5029948;28;20204;-58
2022/07/11 09:34:03;;;;;;;4.20;2.60;;;;;;;26.06;30.82;99378.53;5027372;28;20189;-57
2022/07/11 09:36:41;;;;;;;2.73;2.33;;;;;;;26.26;30.26;99399.50;5027569;28;20609;-60
2022/07/11 09:39:11;;;;;;;3.00;1.60;;;;;;;26.21;29.05;99403.28;5029201;28;20204;-57
2022/07/11 09:41:39;;;;;;;1.70;1.60;;;;;;;26.23;29.84;99397.00;5029126;28;20196;-57
2022/07/11 09:44:13;;;;;;;3.27;1.77;;;;;;;26.36;29.64;99402.53;5029763;28;20221;-58
2022/07/11 09:46:41;;;;;;;1.90;1.70;;;;;;;26.30;29.63;99397.56;5029491;28;20437;-57
2022/07/11 09:49:08;;;;;;;3.90;1.80;;;;;;;26.53;28.55;99399.06;5029035;28;20222;-57
2022/07/11 09:51:37;;;;;;;4.95;1.80;;;;;;;26.66;27.53;99408.06;5029686;28;20712;-57
2022/07/11 09:54:05;;;;;;;2.30;1.30;;;;;;;26.64;25.97;99386.19;5024985;28;20189;-57
2022/07/11 09:56:41;;;;;;;2.73;1.17;;;;;;;26.61;26.12;99405.66;5026828;28;20328;-57
2022/07/11 09:59:11;;;;;;;1.63;1.50;;;;;;;26.65;26.08;99396.66;5029673;28;20271;-57
2022/07/11 10:01:39;;;;;;;1.17;1.13;;;;;;;26.54;25.80;99395.47;5015428;28;20193;-57
2022/07/11 10:04:08;;;;;;;1.60;1.25;;;;;;;26.47;26.20;99381.78;5020082;28;20444;-57
2022/07/11 10:06:36;;;;;;;3.20;1.50;;;;;;;26.66;26.39;99408.91;5027453;28;20429;-57
2022/07/11 10:09:04;;;;;;;2.43;1.60;;;;;;;26.81;26.34;99399.41;5026031;28;20281;-57
2022/07/11 10:11:31;;;;;;;1.20;1.10;;;;;;;26.73;25.07;99407.66;5027858;28;20563;-57
2022/07/11 10:14:04;;;;;;;1.65;1.05;;;;;;;26.61;22.98;99428.53;5028629;28;20448;-57
2022/07/11 10:16:53;;;;;;;1.47;1.10;;;;;;;26.61;23.70;99413.56;5029615;28;20212;-57
2022/07/11 10:19:32;;;;;;;1.97;1.10;;;;;;;26.67;23.93;99404.50;5028955;28;20287;-57
2022/07/11 10:22:11;;;;;;;2.83;1.20;;;;;;;26.75;23.85;99412.88;5028439;28;20448;-58
2022/07/11 10:24:48;;;;;;;1.60;1.20;;;;;;;26.64;24.21;99402.03;5031744;28;20192;-57
2022/07/11 10:27:24;;;;;;;3.47;1.30;;;;;;;26.80;24.06;99400.34;5028999;28;20189;-58
2022/07/11 10:29:53;;;;;;;1.97;1.87;;;;;;;26.90;24.26;99405.06;5028720;28;20192;-58
2022/07/11 10:32:20;;;;;;;1.55;1.40;;;;;;;27.00;24.84;99397.53;5028380;28;20203;-58
2022/07/11 10:35:06;;;;;;;2.20;1.70;;;;;;;27.00;24.69;99392.25;5028816;28;20197;-58
2022/07/11 10:37:47;;;;;;;2.97;1.50;;;;;;;27.08;24.94;99392.72;5027657;28;20244;-58
2022/07/11 10:40:14;;;;;;;2.90;1.77;;;;;;;26.96;25.66;99417.06;5027164;28;20592;-58
2022/07/11 10:42:43;;;;;;;2.60;1.53;;;;;;;26.80;25.68;99413.53;5027525;28;20200;-58
2022/07/11 10:45:12;;;;;;;3.17;1.87;;;;;;;26.84;25.96;99413.28;5026517;28;20640;-58
2022/07/11 10:47:44;;;;;;;2.40;1.50;;;;;;;26.76;26.05;99404.00;5026432;28;20633;-57
2022/07/11 10:50:31;;;;;;;2.77;1.43;;;;;;;26.88;26.81;99398.16;5027364;28;20301;-58
2022/07/11 10:52:59;;;;;;;2.30;1.50;;;;;;;26.72;26.25;99350.63;5027992;28;20205;-58
2022/07/11 10:55:37;;;;;;;2.27;1.97;;;;;;;26.94;26.19;99382.03;5028322;28;20189;-57
2022/07/11 10:58:09;;;;;;;2.60;1.60;;;;;;;26.99;26.86;99382.63;5028807;28;20203;-58
2022/07/11 11:00:38;;;;;;;1.60;1.50;;;;;;;27.21;26.62;99385.84;5028774;28;20197;-57
2022/07/11 11:03:06;;;;;;;2.50;1.70;;;;;;;27.34;26.18;99386.03;5029430;28;20227;-57
2022/07/11 11:05:49;;;;;;;3.17;2.40;;;;;;;27.40;26.66;99381.31;5028827;28;20197;-57
2022/07/11 11:08:42;;;;;;;2.33;1.80;;;;;;;27.51;26.73;99393.94;5028433;28;20204;-58
2022/07/11 11:11:38;;;;;;;2.80;2.07;;;;;;;27.40;26.14;99377.78;5028306;28;20571;-58
2022/07/11 11:14:27;;;;;;;3.50;1.85;;;;;;;27.35;26.59;99382.47;5028871;28;20280;-57
2022/07/11 11:16:56;;;;;;;3.10;1.30;;;;;;;27.20;26.17;99373.56;5028839;28;20224;-57
2022/07/11 11:19:54;;;;;;;1.60;1.50;;;;;;;27.32;27.11;99380.00;5031187;28;20229;-57
2022/07/11 11:22:23;;;;;;;1.67;1.57;;;;;;;27.16;26.45;99382.59;5032243;28;20663;-57
2022/07/11 11:24:53;;;;;;;3.72;1.65;;;;;;;27.30;26.96;99385.34;5032625;28;20223;-58
2022/07/11 11:27:21;;;;;;;1.92;1.65;;;;;;;27.53;26.43;99382.34;5031631;28;20494;-58
2022/07/11 11:29:51;;;;;;;7.43;1.60;;;;;;;27.73;26.91;99390.97;5032406;28;20205;-58
2022/07/11 11:32:20;;;;;;;2.20;1.50;;;;;;;27.59;26.10;99386.44;5032385;28;20608;-57
2022/07/11 11:34:48;;;;;;;5.17;1.53;;;;;;;27.61;26.47;99389.84;5032496;28;20262;-57
2022/07/11 11:37:17;;;;;;;1.58;1.48;;;;;;;27.56;25.94;99377.81;5032186;28;20220;-57
2022/07/11 11:39:44;;;;;;;3.10;1.40;;;;;;;27.44;26.55;99395.22;5031707;28;20216;-57
2022/07/11 11:42:17;;;;;;;3.43;1.57;;;;;;;27.20;27.17;99383.28;5031839;28;20197;-57
2022/07/11 11:44:56;;;;;;;2.27;1.80;;;;;;;27.36;26.56;99387.66;5032451;28;20648;-57
2022/07/11 11:47:25;;;;;;;2.70;1.40;;;;;;;27.33;27.13;99379.88;5032083;28;20224;-57
2022/07/11 11:49:52;;;;;;;1.40;1.30;;;;;;;27.14;26.59;99396.81;5031871;28;20193;-57
2022/07/11 11:52:20;;;;;;;2.60;1.27;;;;;;;27.35;26.71;99388.59;5032095;28;20201;-57
2022/07/11 11:54:55;;;;;;;1.40;1.37;;;;;;;27.38;25.57;99382.31;5031882;28;20204;-58
2022/07/11 11:57:24;;;;;;;2.60;1.80;;;;;;;27.65;26.48;99379.97;5031822;28;20220;-57